sensor_id;sensor_type;location;lat;lon;timestamp;P1;durP1;ratioP1;P2;durP2;ratioP2
11709;SDS011;5911;51.036;6.972;2023-03-23T00:01:25;1.95;;;1.58;;
11709;SDS011;5911;51.036;6.972;2023-03-23T00:03:55;3.17;;;1.93;;
11709;SDS011;5911;51.036;6.972;2023-03-23T00:06:23;3.60;;;2.43;;
11709;SDS011;5911;51.036;6.972;2023-03-23T00:08:53;2.43;;;1.80;;
11709;SDS011;5911;51.036;6.972;2023-03-23T00:11:25;2.40;;;1.70;;
11709;SDS011;5911;51.036;6.972;2023-03-23T00:13:55;2.70;;;1.90;;
11709;SDS011;5911;51.036;6.972;2023-03-23T00:16:26;3.07;;;2.13;;
11709;SDS011;5911;51.036;6.972;2023-03-23T00:18:56;2.33;;;1.60;;
11709;SDS011;5911;51.036;6.972;2023-03-23T00:21:24;3.33;;;1.70;;
11709;SDS011;5911;51.036;6.972;2023-03-23T00:24:04;2.03;;;1.70;;
11709;SDS011;5911;51.036;6.972;2023-03-23T00:26:33;2.63;;;1.97;;
11709;SDS011;5911;51.036;6.972;2023-03-23T00:29:02;5.40;;;2.00;;
11709;SDS011;5911;51.036;6.972;2023-03-23T00:31:29;2.23;;;2.03;;
11709;SDS011;5911;51.036;6.972;2023-03-23T00:33:58;2.50;;;1.60;;
11709;SDS011;5911;51.036;6.972;2023-03-23T00:36:29;2.40;;;1.73;;
11709;SDS011;5911;51.036;6.972;2023-03-23T00:38:56;3.33;;;2.00;;
11709;SDS011;5911;51.036;6.972;2023-03-23T00:41:26;1.90;;;1.67;;
11709;SDS011;5911;51.036;6.972;2023-03-23T00:43:54;2.73;;;1.80;;
11709;SDS011;5911;51.036;6.972;2023-03-23T00:46:22;2.20;;;2.00;;
11709;SDS011;5911;51.036;6.972;2023-03-23T00:48:49;2.50;;;1.83;;
11709;SDS011;5911;51.036;6.972;2023-03-23T00:51:16;3.10;;;1.97;;
11709;SDS011;5911;51.036;6.972;2023-03-23T00:53:44;2.60;;;2.40;;
11709;SDS011;5911;51.036;6.972;2023-03-23T00:56:11;2.40;;;1.70;;
11709;SDS011;5911;51.036;6.972;2023-03-23T00:58:39;4.90;;;2.17;;
11709;SDS011;5911;51.036;6.972;2023-03-23T01:01:06;2.23;;;1.70;;
11709;SDS011;5911;51.036;6.972;2023-03-23T01:03:33;2.33;;;1.70;;
11709;SDS011;5911;51.036;6.972;2023-03-23T01:06:05;2.45;;;1.67;;
11709;SDS011;5911;51.036;6.972;2023-03-23T01:08:41;2.92;;;1.70;;
11709;SDS011;5911;51.036;6.972;2023-03-23T01:11:12;2.67;;;1.70;;
11709;SDS011;5911;51.036;6.972;2023-03-23T01:13:42;3.83;;;1.80;;
11709;SDS011;5911;51.036;6.972;2023-03-23T01:16:09;4.35;;;1.85;;
11709;SDS011;5911;51.036;6.972;2023-03-23T01:18:37;2.72;;;1.63;;
11709;SDS011;5911;51.036;6.972;2023-03-23T01:21:04;2.13;;;1.67;;
11709;SDS011;5911;51.036;6.972;2023-03-23T01:23:33;5.40;;;1.77;;
11709;SDS011;5911;51.036;6.972;2023-03-23T01:26:04;1.65;;;1.55;;
11709;SDS011;5911;51.036;6.972;2023-03-23T01:28:32;3.63;;;2.17;;
11709;SDS011;5911;51.036;6.972;2023-03-23T01:31:01;2.80;;;1.98;;
11709;SDS011;5911;51.036;6.972;2023-03-23T01:33:29;3.38;;;2.05;;
11709;SDS011;5911;51.036;6.972;2023-03-23T01:35:56;1.97;;;1.80;;
11709;SDS011;5911;51.036;6.972;2023-03-23T01:38:23;2.23;;;2.00;;
11709;SDS011;5911;51.036;6.972;2023-03-23T01:40:50;3.07;;;2.20;;
11709;SDS011;5911;51.036;6.972;2023-03-23T01:43:18;2.60;;;2.10;;
11709;SDS011;5911;51.036;6.972;2023-03-23T01:45:45;3.20;;;2.23;;
11709;SDS011;5911;51.036;6.972;2023-03-23T01:48:14;3.37;;;2.23;;
11709;SDS011;5911;51.036;6.972;2023-03-23T01:50:48;4.18;;;2.80;;
11709;SDS011;5911;51.036;6.972;2023-03-23T01:53:18;4.67;;;2.33;;
11709;SDS011;5911;51.036;6.972;2023-03-23T01:55:46;4.60;;;2.20;;
11709;SDS011;5911;51.036;6.972;2023-03-23T01:58:17;4.30;;;2.53;;
11709;SDS011;5911;51.036;6.972;2023-03-23T02:00:47;2.90;;;2.20;;
11709;SDS011;5911;51.036;6.972;2023-03-23T02:03:15;2.60;;;2.03;;
11709;SDS011;5911;51.036;6.972;2023-03-23T02:05:43;3.87;;;2.43;;
11709;SDS011;5911;51.036;6.972;2023-03-23T02:08:17;2.77;;;2.20;;
11709;SDS011;5911;51.036;6.972;2023-03-23T02:10:45;3.73;;;2.20;;
11709;SDS011;5911;51.036;6.972;2023-03-23T02:13:13;3.67;;;2.17;;
11709;SDS011;5911;51.036;6.972;2023-03-23T02:15:45;5.67;;;2.40;;
11709;SDS011;5911;51.036;6.972;2023-03-23T02:18:26;2.40;;;2.20;;
11709;SDS011;5911;51.036;6.972;2023-03-23T02:24:18;3.92;;;2.40;;
11709;SDS011;5911;51.036;6.972;2023-03-23T02:27:05;3.93;;;2.30;;
11709;SDS011;5911;51.036;6.972;2023-03-23T02:29:59;3.57;;;2.00;;
11709;SDS011;5911;51.036;6.972;2023-03-23T02:32:51;3.13;;;2.23;;
11709;SDS011;5911;51.036;6.972;2023-03-23T02:36:00;3.07;;;2.30;;
11709;SDS011;5911;51.036;6.972;2023-03-23T02:38:31;3.77;;;2.10;;
11709;SDS011;5911;51.036;6.972;2023-03-23T02:41:01;3.63;;;2.10;;
11709;SDS011;5911;51.036;6.972;2023-03-23T02:43:30;2.90;;;1.90;;
11709;SDS011;5911;51.036;6.972;2023-03-23T02:46:01;3.77;;;1.93;;
11709;SDS011;5911;51.036;6.972;2023-03-23T02:48:32;3.07;;;1.90;;
11709;SDS011;5911;51.036;6.972;2023-03-23T02:51:01;2.00;;;1.80;;
11709;SDS011;5911;51.036;6.972;2023-03-23T02:53:30;2.03;;;1.70;;
11709;SDS011;5911;51.036;6.972;2023-03-23T02:56:01;2.60;;;2.40;;
11709;SDS011;5911;51.036;6.972;2023-03-23T02:58:30;4.38;;;2.38;;
11709;SDS011;5911;51.036;6.972;2023-03-23T03:00:58;3.17;;;2.20;;
11709;SDS011;5911;51.036;6.972;2023-03-23T03:03:26;2.17;;;1.90;;
11709;SDS011;5911;51.036;6.972;2023-03-23T03:05:58;3.30;;;2.20;;
11709;SDS011;5911;51.036;6.972;2023-03-23T03:08:36;2.20;;;1.93;;
11709;SDS011;5911;51.036;6.972;2023-03-23T03:11:12;2.00;;;1.80;;
11709;SDS011;5911;51.036;6.972;2023-03-23T03:13:44;3.13;;;1.90;;
11709;SDS011;5911;51.036;6.972;2023-03-23T03:16:21;1.50;;;1.40;;
11709;SDS011;5911;51.036;6.972;2023-03-23T03:18:54;2.20;;;1.47;;
11709;SDS011;5911;51.036;6.972;2023-03-23T03:21:28;2.63;;;2.00;;
11709;SDS011;5911;51.036;6.972;2023-03-23T03:24:00;3.17;;;1.88;;
11709;SDS011;5911;51.036;6.972;2023-03-23T03:26:30;2.20;;;1.53;;
11709;SDS011;5911;51.036;6.972;2023-03-23T03:29:17;2.37;;;1.80;;
11709;SDS011;5911;51.036;6.972;2023-03-23T03:31:47;3.03;;;1.80;;
11709;SDS011;5911;51.036;6.972;2023-03-23T03:34:21;1.77;;;1.40;;
11709;SDS011;5911;51.036;6.972;2023-03-23T03:36:52;1.93;;;1.73;;
11709;SDS011;5911;51.036;6.972;2023-03-23T03:39:24;1.50;;;1.40;;
11709;SDS011;5911;51.036;6.972;2023-03-23T03:41:51;2.13;;;1.50;;
11709;SDS011;5911;51.036;6.972;2023-03-23T03:44:19;2.20;;;1.60;;
11709;SDS011;5911;51.036;6.972;2023-03-23T03:46:46;1.70;;;1.40;;
11709;SDS011;5911;51.036;6.972;2023-03-23T03:49:12;1.87;;;1.77;;
11709;SDS011;5911;51.036;6.972;2023-03-23T03:51:41;2.33;;;1.50;;
11709;SDS011;5911;51.036;6.972;2023-03-23T03:54:16;2.30;;;1.67;;
11709;SDS011;5911;51.036;6.972;2023-03-23T03:56:43;1.77;;;1.40;;
11709;SDS011;5911;51.036;6.972;2023-03-23T03:59:33;2.30;;;1.50;;
11709;SDS011;5911;51.036;6.972;2023-03-23T04:02:24;3.40;;;1.67;;
11709;SDS011;5911;51.036;6.972;2023-03-23T04:04:52;3.87;;;1.97;;
11709;SDS011;5911;51.036;6.972;2023-03-23T04:07:19;2.45;;;1.70;;
11709;SDS011;5911;51.036;6.972;2023-03-23T04:09:49;2.05;;;1.63;;
11709;SDS011;5911;51.036;6.972;2023-03-23T04:12:19;3.00;;;1.80;;
11709;SDS011;5911;51.036;6.972;2023-03-23T04:14:54;1.87;;;1.73;;
11709;SDS011;5911;51.036;6.972;2023-03-23T04:17:25;2.47;;;1.60;;
11709;SDS011;5911;51.036;6.972;2023-03-23T04:19:52;2.72;;;1.40;;
11709;SDS011;5911;51.036;6.972;2023-03-23T04:22:22;1.67;;;1.50;;
11709;SDS011;5911;51.036;6.972;2023-03-23T04:24:58;1.50;;;1.37;;
11709;SDS011;5911;51.036;6.972;2023-03-23T04:27:32;1.97;;;1.50;;
11709;SDS011;5911;51.036;6.972;2023-03-23T04:30:02;2.05;;;1.25;;
11709;SDS011;5911;51.036;6.972;2023-03-23T04:32:48;1.40;;;1.30;;
11709;SDS011;5911;51.036;6.972;2023-03-23T04:35:21;3.38;;;1.67;;
11709;SDS011;5911;51.036;6.972;2023-03-23T04:38:02;2.30;;;1.60;;
11709;SDS011;5911;51.036;6.972;2023-03-23T04:40:30;1.40;;;1.30;;
11709;SDS011;5911;51.036;6.972;2023-03-23T04:43:07;1.70;;;1.20;;
11709;SDS011;5911;51.036;6.972;2023-03-23T04:45:59;1.83;;;1.70;;
11709;SDS011;5911;51.036;6.972;2023-03-23T04:48:30;2.77;;;1.50;;
11709;SDS011;5911;51.036;6.972;2023-03-23T04:51:17;1.95;;;1.48;;
11709;SDS011;5911;51.036;6.972;2023-03-23T04:53:47;2.20;;;1.60;;
11709;SDS011;5911;51.036;6.972;2023-03-23T04:56:16;2.22;;;1.80;;
11709;SDS011;5911;51.036;6.972;2023-03-23T04:58:44;1.90;;;1.80;;
11709;SDS011;5911;51.036;6.972;2023-03-23T05:01:17;2.10;;;1.90;;
11709;SDS011;5911;51.036;6.972;2023-03-23T05:03:54;2.10;;;1.60;;
11709;SDS011;5911;51.036;6.972;2023-03-23T05:06:21;2.28;;;1.70;;
11709;SDS011;5911;51.036;6.972;2023-03-23T05:08:52;3.00;;;1.55;;
11709;SDS011;5911;51.036;6.972;2023-03-23T05:11:22;1.67;;;1.58;;
11709;SDS011;5911;51.036;6.972;2023-03-23T05:13:49;1.85;;;1.65;;
11709;SDS011;5911;51.036;6.972;2023-03-23T05:16:16;1.80;;;1.58;;
11709;SDS011;5911;51.036;6.972;2023-03-23T05:18:43;2.00;;;1.80;;
11709;SDS011;5911;51.036;6.972;2023-03-23T05:21:14;2.78;;;2.35;;
11709;SDS011;5911;51.036;6.972;2023-03-23T05:23:47;2.67;;;1.80;;
11709;SDS011;5911;51.036;6.972;2023-03-23T05:26:19;2.17;;;1.52;;
11709;SDS011;5911;51.036;6.972;2023-03-23T05:28:51;1.90;;;1.70;;
11709;SDS011;5911;51.036;6.972;2023-03-23T05:31:38;2.27;;;1.90;;
11709;SDS011;5911;51.036;6.972;2023-03-23T05:34:05;2.63;;;1.52;;
11709;SDS011;5911;51.036;6.972;2023-03-23T05:36:38;2.25;;;1.65;;
11709;SDS011;5911;51.036;6.972;2023-03-23T05:39:12;2.47;;;1.63;;
11709;SDS011;5911;51.036;6.972;2023-03-23T05:41:59;1.70;;;1.40;;
11709;SDS011;5911;51.036;6.972;2023-03-23T05:44:38;2.70;;;1.75;;
11709;SDS011;5911;51.036;6.972;2023-03-23T05:47:05;1.90;;;1.80;;
11709;SDS011;5911;51.036;6.972;2023-03-23T05:49:33;2.33;;;1.97;;
11709;SDS011;5911;51.036;6.972;2023-03-23T05:52:02;2.80;;;2.10;;
11709;SDS011;5911;51.036;6.972;2023-03-23T05:54:29;3.27;;;2.73;;
11709;SDS011;5911;51.036;6.972;2023-03-23T05:56:56;2.50;;;2.10;;
11709;SDS011;5911;51.036;6.972;2023-03-23T05:59:50;1.90;;;1.70;;
11709;SDS011;5911;51.036;6.972;2023-03-23T06:02:21;2.10;;;1.90;;
11709;SDS011;5911;51.036;6.972;2023-03-23T06:04:49;2.10;;;1.90;;
11709;SDS011;5911;51.036;6.972;2023-03-23T06:07:24;3.40;;;2.63;;
11709;SDS011;5911;51.036;6.972;2023-03-23T06:10:03;2.67;;;2.37;;
11709;SDS011;5911;51.036;6.972;2023-03-23T06:12:36;3.40;;;2.33;;
11709;SDS011;5911;51.036;6.972;2023-03-23T06:15:06;4.20;;;2.40;;
11709;SDS011;5911;51.036;6.972;2023-03-23T06:18:03;3.07;;;2.13;;
11709;SDS011;5911;51.036;6.972;2023-03-23T06:20:38;2.77;;;2.17;;
11709;SDS011;5911;51.036;6.972;2023-03-23T06:23:24;2.87;;;2.13;;
11709;SDS011;5911;51.036;6.972;2023-03-23T06:25:57;2.57;;;2.33;;
11709;SDS011;5911;51.036;6.972;2023-03-23T06:28:26;3.53;;;2.50;;
11709;SDS011;5911;51.036;6.972;2023-03-23T06:30:58;2.93;;;2.23;;
11709;SDS011;5911;51.036;6.972;2023-03-23T06:33:25;2.43;;;2.13;;
11709;SDS011;5911;51.036;6.972;2023-03-23T06:36:18;3.50;;;2.33;;
11709;SDS011;5911;51.036;6.972;2023-03-23T06:39:00;2.63;;;2.00;;
11709;SDS011;5911;51.036;6.972;2023-03-23T06:41:46;4.50;;;2.27;;
11709;SDS011;5911;51.036;6.972;2023-03-23T06:44:13;3.80;;;2.67;;
11709;SDS011;5911;51.036;6.972;2023-03-23T06:46:41;3.87;;;2.27;;
11709;SDS011;5911;51.036;6.972;2023-03-23T06:49:23;5.43;;;2.53;;
11709;SDS011;5911;51.036;6.972;2023-03-23T06:51:57;4.07;;;2.20;;
11709;SDS011;5911;51.036;6.972;2023-03-23T06:54:25;3.57;;;2.20;;
11709;SDS011;5911;51.036;6.972;2023-03-23T06:56:52;3.50;;;1.80;;
11709;SDS011;5911;51.036;6.972;2023-03-23T06:59:19;2.93;;;1.93;;
11709;SDS011;5911;51.036;6.972;2023-03-23T07:01:48;4.30;;;1.80;;
11709;SDS011;5911;51.036;6.972;2023-03-23T07:04:14;2.22;;;1.73;;
11709;SDS011;5911;51.036;6.972;2023-03-23T07:06:49;3.77;;;2.33;;
11709;SDS011;5911;51.036;6.972;2023-03-23T07:09:17;4.90;;;2.40;;
11709;SDS011;5911;51.036;6.972;2023-03-23T07:11:44;4.90;;;2.42;;
11709;SDS011;5911;51.036;6.972;2023-03-23T07:14:26;2.50;;;1.77;;
11709;SDS011;5911;51.036;6.972;2023-03-23T07:16:54;3.42;;;1.70;;
11709;SDS011;5911;51.036;6.972;2023-03-23T07:19:21;6.07;;;2.30;;
11709;SDS011;5911;51.036;6.972;2023-03-23T07:21:49;2.70;;;2.15;;
11709;SDS011;5911;51.036;6.972;2023-03-23T07:24:16;5.60;;;2.27;;
11709;SDS011;5911;51.036;6.972;2023-03-23T07:26:58;4.63;;;1.90;;
11709;SDS011;5911;51.036;6.972;2023-03-23T07:29:26;4.30;;;2.47;;
11709;SDS011;5911;51.036;6.972;2023-03-23T07:32:05;4.73;;;2.37;;
11709;SDS011;5911;51.036;6.972;2023-03-23T07:34:32;4.47;;;2.20;;
11709;SDS011;5911;51.036;6.972;2023-03-23T07:37:08;2.57;;;1.83;;
11709;SDS011;5911;51.036;6.972;2023-03-23T07:39:36;2.53;;;1.87;;
11709;SDS011;5911;51.036;6.972;2023-03-23T07:42:03;2.70;;;1.70;;
11709;SDS011;5911;51.036;6.972;2023-03-23T07:44:47;3.57;;;2.03;;
11709;SDS011;5911;51.036;6.972;2023-03-23T07:47:16;2.83;;;2.00;;
11709;SDS011;5911;51.036;6.972;2023-03-23T07:49:46;2.97;;;1.57;;
11709;SDS011;5911;51.036;6.972;2023-03-23T07:52:23;4.60;;;1.97;;
11709;SDS011;5911;51.036;6.972;2023-03-23T07:54:50;3.20;;;1.90;;
11709;SDS011;5911;51.036;6.972;2023-03-23T07:57:40;4.20;;;1.87;;
11709;SDS011;5911;51.036;6.972;2023-03-23T08:00:09;3.67;;;1.87;;
11709;SDS011;5911;51.036;6.972;2023-03-23T08:02:42;3.17;;;1.90;;
11709;SDS011;5911;51.036;6.972;2023-03-23T08:05:38;3.73;;;1.70;;
11709;SDS011;5911;51.036;6.972;2023-03-23T08:08:24;3.17;;;1.53;;
11709;SDS011;5911;51.036;6.972;2023-03-23T08:11:20;1.70;;;1.47;;
11709;SDS011;5911;51.036;6.972;2023-03-23T08:14:09;2.50;;;1.90;;
11709;SDS011;5911;51.036;6.972;2023-03-23T08:16:51;3.33;;;1.83;;
11709;SDS011;5911;51.036;6.972;2023-03-23T08:19:43;3.13;;;1.77;;
11709;SDS011;5911;51.036;6.972;2023-03-23T08:22:34;3.83;;;1.50;;
11709;SDS011;5911;51.036;6.972;2023-03-23T08:25:30;3.50;;;1.38;;
11709;SDS011;5911;51.036;6.972;2023-03-23T08:28:17;3.53;;;1.40;;
11709;SDS011;5911;51.036;6.972;2023-03-23T08:30:56;3.90;;;1.63;;
11709;SDS011;5911;51.036;6.972;2023-03-23T08:33:35;2.90;;;1.67;;
11709;SDS011;5911;51.036;6.972;2023-03-23T08:36:24;6.25;;;1.50;;
11709;SDS011;5911;51.036;6.972;2023-03-23T08:39:01;3.43;;;1.93;;
11709;SDS011;5911;51.036;6.972;2023-03-23T08:41:48;4.03;;;1.65;;
11709;SDS011;5911;51.036;6.972;2023-03-23T08:44:35;5.63;;;1.55;;
11709;SDS011;5911;51.036;6.972;2023-03-23T08:47:13;4.40;;;1.77;;
11709;SDS011;5911;51.036;6.972;2023-03-23T08:49:59;3.53;;;1.60;;
11709;SDS011;5911;51.036;6.972;2023-03-23T08:52:52;3.85;;;1.85;;
11709;SDS011;5911;51.036;6.972;2023-03-23T08:55:32;5.43;;;2.13;;
11709;SDS011;5911;51.036;6.972;2023-03-23T08:58:10;4.15;;;1.60;;
11709;SDS011;5911;51.036;6.972;2023-03-23T09:01:13;3.50;;;1.65;;
11709;SDS011;5911;51.036;6.972;2023-03-23T09:03:43;2.77;;;1.37;;
11709;SDS011;5911;51.036;6.972;2023-03-23T09:06:30;6.83;;;1.80;;
11709;SDS011;5911;51.036;6.972;2023-03-23T09:08:59;3.67;;;1.45;;
11709;SDS011;5911;51.036;6.972;2023-03-23T09:11:31;3.40;;;1.42;;
11709;SDS011;5911;51.036;6.972;2023-03-23T09:13:58;5.67;;;1.90;;
11709;SDS011;5911;51.036;6.972;2023-03-23T09:16:26;2.75;;;1.50;;
11709;SDS011;5911;51.036;6.972;2023-03-23T09:18:53;5.60;;;1.77;;
11709;SDS011;5911;51.036;6.972;2023-03-23T09:21:21;4.10;;;1.60;;
11709;SDS011;5911;51.036;6.972;2023-03-23T09:23:48;3.00;;;1.40;;
11709;SDS011;5911;51.036;6.972;2023-03-23T09:26:17;6.43;;;1.70;;
11709;SDS011;5911;51.036;6.972;2023-03-23T09:28:43;6.32;;;1.42;;
11709;SDS011;5911;51.036;6.972;2023-03-23T09:31:10;3.50;;;1.50;;
11709;SDS011;5911;51.036;6.972;2023-03-23T09:33:37;3.10;;;1.83;;
11709;SDS011;5911;51.036;6.972;2023-03-23T09:36:04;1.70;;;1.30;;
11709;SDS011;5911;51.036;6.972;2023-03-23T09:38:33;4.47;;;1.63;;
11709;SDS011;5911;51.036;6.972;2023-03-23T09:41:02;4.63;;;1.50;;
11709;SDS011;5911;51.036;6.972;2023-03-23T09:43:43;3.43;;;1.73;;
11709;SDS011;5911;51.036;6.972;2023-03-23T09:49:13;6.78;;;2.00;;
11709;SDS011;5911;51.036;6.972;2023-03-23T09:51:44;6.70;;;1.50;;
11709;SDS011;5911;51.036;6.972;2023-03-23T09:54:16;2.83;;;1.27;;
11709;SDS011;5911;51.036;6.972;2023-03-23T09:56:46;4.80;;;1.83;;
11709;SDS011;5911;51.036;6.972;2023-03-23T09:59:17;7.72;;;1.80;;
11709;SDS011;5911;51.036;6.972;2023-03-23T10:01:48;6.00;;;2.50;;
11709;SDS011;5911;51.036;6.972;2023-03-23T10:04:24;4.60;;;1.65;;
11709;SDS011;5911;51.036;6.972;2023-03-23T10:06:56;7.00;;;1.80;;
11709;SDS011;5911;51.036;6.972;2023-03-23T10:09:25;3.30;;;1.60;;
11709;SDS011;5911;51.036;6.972;2023-03-23T10:11:58;2.23;;;1.30;;
11709;SDS011;5911;51.036;6.972;2023-03-23T10:14:38;4.50;;;1.47;;
11709;SDS011;5911;51.036;6.972;2023-03-23T10:17:17;5.22;;;2.00;;
11709;SDS011;5911;51.036;6.972;2023-03-23T10:19:49;3.70;;;1.52;;
11709;SDS011;5911;51.036;6.972;2023-03-23T10:22:21;4.60;;;1.67;;
11709;SDS011;5911;51.036;6.972;2023-03-23T10:24:57;5.07;;;1.55;;
11709;SDS011;5911;51.036;6.972;2023-03-23T10:27:36;3.63;;;1.50;;
11709;SDS011;5911;51.036;6.972;2023-03-23T10:30:13;5.22;;;1.67;;
11709;SDS011;5911;51.036;6.972;2023-03-23T10:32:46;3.97;;;1.63;;
11709;SDS011;5911;51.036;6.972;2023-03-23T10:35:18;4.33;;;1.40;;
11709;SDS011;5911;51.036;6.972;2023-03-23T10:37:48;5.03;;;1.50;;
11709;SDS011;5911;51.036;6.972;2023-03-23T10:40:20;4.38;;;1.55;;
11709;SDS011;5911;51.036;6.972;2023-03-23T10:42:49;3.40;;;1.20;;
11709;SDS011;5911;51.036;6.972;2023-03-23T10:45:22;4.97;;;1.73;;
11709;SDS011;5911;51.036;6.972;2023-03-23T10:47:55;3.57;;;1.37;;
11709;SDS011;5911;51.036;6.972;2023-03-23T10:50:30;3.53;;;1.25;;
11709;SDS011;5911;51.036;6.972;2023-03-23T10:52:58;5.15;;;1.63;;
11709;SDS011;5911;51.036;6.972;2023-03-23T10:55:36;4.65;;;1.48;;
11709;SDS011;5911;51.036;6.972;2023-03-23T10:58:06;2.72;;;1.30;;
11709;SDS011;5911;51.036;6.972;2023-03-23T11:00:41;3.13;;;1.57;;
11709;SDS011;5911;51.036;6.972;2023-03-23T11:03:24;3.30;;;1.33;;
11709;SDS011;5911;51.036;6.972;2023-03-23T11:05:56;1.70;;;1.30;;
11709;SDS011;5911;51.036;6.972;2023-03-23T11:08:24;2.80;;;1.30;;
11709;SDS011;5911;51.036;6.972;2023-03-23T11:10:55;1.77;;;1.30;;
11709;SDS011;5911;51.036;6.972;2023-03-23T11:13:27;3.60;;;1.58;;
11709;SDS011;5911;51.036;6.972;2023-03-23T11:15:57;4.70;;;1.83;;
11709;SDS011;5911;51.036;6.972;2023-03-23T11:18:26;2.78;;;1.17;;
11709;SDS011;5911;51.036;6.972;2023-03-23T11:21:01;2.80;;;1.50;;
11709;SDS011;5911;51.036;6.972;2023-03-23T11:23:29;3.22;;;1.38;;
11709;SDS011;5911;51.036;6.972;2023-03-23T11:25:59;2.38;;;1.30;;
11709;SDS011;5911;51.036;6.972;2023-03-23T11:28:31;1.90;;;1.00;;
11709;SDS011;5911;51.036;6.972;2023-03-23T11:31:03;2.15;;;1.20;;
11709;SDS011;5911;51.036;6.972;2023-03-23T11:33:36;1.50;;;1.10;;
11709;SDS011;5911;51.036;6.972;2023-03-23T11:36:06;2.80;;;1.00;;
11709;SDS011;5911;51.036;6.972;2023-03-23T11:38:34;1.40;;;1.17;;
11709;SDS011;5911;51.036;6.972;2023-03-23T11:41:01;2.73;;;1.00;;
11709;SDS011;5911;51.036;6.972;2023-03-23T11:43:38;1.50;;;0.83;;
11709;SDS011;5911;51.036;6.972;2023-03-23T11:46:11;1.67;;;0.93;;
11709;SDS011;5911;51.036;6.972;2023-03-23T11:48:49;2.80;;;1.07;;
11709;SDS011;5911;51.036;6.972;2023-03-23T11:51:20;3.90;;;1.25;;
11709;SDS011;5911;51.036;6.972;2023-03-23T11:53:55;3.13;;;1.63;;
11709;SDS011;5911;51.036;6.972;2023-03-23T11:56:28;2.77;;;1.30;;
11709;SDS011;5911;51.036;6.972;2023-03-23T11:58:57;2.42;;;1.38;;
11709;SDS011;5911;51.036;6.972;2023-03-23T12:01:37;2.47;;;1.27;;
11709;SDS011;5911;51.036;6.972;2023-03-23T12:04:19;5.33;;;1.80;;
11709;SDS011;5911;51.036;6.972;2023-03-23T12:06:58;3.13;;;1.70;;
11709;SDS011;5911;51.036;6.972;2023-03-23T12:09:41;3.37;;;1.90;;
11709;SDS011;5911;51.036;6.972;2023-03-23T12:12:16;5.00;;;2.00;;
11709;SDS011;5911;51.036;6.972;2023-03-23T12:14:53;2.90;;;2.00;;
11709;SDS011;5911;51.036;6.972;2023-03-23T12:17:29;4.43;;;1.70;;
11709;SDS011;5911;51.036;6.972;2023-03-23T12:20:09;3.33;;;1.87;;
11709;SDS011;5911;51.036;6.972;2023-03-23T12:22:46;2.40;;;1.70;;
11709;SDS011;5911;51.036;6.972;2023-03-23T12:25:32;2.83;;;1.70;;
11709;SDS011;5911;51.036;6.972;2023-03-23T12:28:28;3.17;;;1.88;;
11709;SDS011;5911;51.036;6.972;2023-03-23T12:31:03;3.40;;;2.13;;
11709;SDS011;5911;51.036;6.972;2023-03-23T12:33:43;4.20;;;2.10;;
11709;SDS011;5911;51.036;6.972;2023-03-23T12:36:19;3.30;;;2.00;;
11709;SDS011;5911;51.036;6.972;2023-03-23T12:39:08;3.43;;;2.50;;
11709;SDS011;5911;51.036;6.972;2023-03-23T12:42:01;3.90;;;2.30;;
11709;SDS011;5911;51.036;6.972;2023-03-23T12:44:35;3.00;;;2.60;;
11709;SDS011;5911;51.036;6.972;2023-03-23T12:47:16;4.07;;;2.60;;
11709;SDS011;5911;51.036;6.972;2023-03-23T12:50:09;2.63;;;2.13;;
11709;SDS011;5911;51.036;6.972;2023-03-23T12:52:42;3.15;;;2.60;;
11709;SDS011;5911;51.036;6.972;2023-03-23T12:55:15;6.85;;;2.60;;
11709;SDS011;5911;51.036;6.972;2023-03-23T12:57:48;4.87;;;2.33;;
11709;SDS011;5911;51.036;6.972;2023-03-23T13:00:21;3.10;;;2.17;;
11709;SDS011;5911;51.036;6.972;2023-03-23T13:02:52;5.40;;;2.80;;
11709;SDS011;5911;51.036;6.972;2023-03-23T13:05:28;4.70;;;2.87;;
11709;SDS011;5911;51.036;6.972;2023-03-23T13:08:02;3.75;;;2.10;;
11709;SDS011;5911;51.036;6.972;2023-03-23T13:10:33;5.20;;;1.77;;
11709;SDS011;5911;51.036;6.972;2023-03-23T13:13:05;1.98;;;1.15;;
11709;SDS011;5911;51.036;6.972;2023-03-23T13:15:37;1.53;;;1.23;;
11709;SDS011;5911;51.036;6.972;2023-03-23T13:18:12;1.80;;;1.20;;
11709;SDS011;5911;51.036;6.972;2023-03-23T13:20:52;3.00;;;1.05;;
11709;SDS011;5911;51.036;6.972;2023-03-23T13:23:26;4.03;;;1.30;;
11709;SDS011;5911;51.036;6.972;2023-03-23T13:25:59;2.35;;;1.35;;
11709;SDS011;5911;51.036;6.972;2023-03-23T13:28:29;3.58;;;1.33;;
11709;SDS011;5911;51.036;6.972;2023-03-23T13:30:59;3.50;;;1.30;;
11709;SDS011;5911;51.036;6.972;2023-03-23T13:33:29;5.50;;;1.63;;
11709;SDS011;5911;51.036;6.972;2023-03-23T13:36:03;2.83;;;1.27;;
11709;SDS011;5911;51.036;6.972;2023-03-23T13:38:33;3.08;;;1.15;;
11709;SDS011;5911;51.036;6.972;2023-03-23T13:41:05;3.25;;;1.60;;
11709;SDS011;5911;51.036;6.972;2023-03-23T13:43:35;2.42;;;1.33;;
11709;SDS011;5911;51.036;6.972;2023-03-23T13:46:11;3.85;;;1.60;;
11709;SDS011;5911;51.036;6.972;2023-03-23T13:48:50;3.40;;;1.38;;
11709;SDS011;5911;51.036;6.972;2023-03-23T13:51:35;1.40;;;1.13;;
11709;SDS011;5911;51.036;6.972;2023-03-23T13:54:18;5.47;;;1.40;;
11709;SDS011;5911;51.036;6.972;2023-03-23T13:56:52;3.37;;;1.37;;
11709;SDS011;5911;51.036;6.972;2023-03-23T13:59:34;2.28;;;1.13;;
11709;SDS011;5911;51.036;6.972;2023-03-23T14:02:29;2.85;;;0.75;;
11709;SDS011;5911;51.036;6.972;2023-03-23T14:05:08;1.92;;;0.77;;
11709;SDS011;5911;51.036;6.972;2023-03-23T14:07:55;2.53;;;1.05;;
11709;SDS011;5911;51.036;6.972;2023-03-23T14:10:25;2.07;;;0.87;;
11709;SDS011;5911;51.036;6.972;2023-03-23T14:12:58;0.90;;;0.77;;
11709;SDS011;5911;51.036;6.972;2023-03-23T14:15:28;2.40;;;1.10;;
11709;SDS011;5911;51.036;6.972;2023-03-23T14:17:55;1.00;;;0.90;;
11709;SDS011;5911;51.036;6.972;2023-03-23T14:20:25;2.00;;;1.10;;
11709;SDS011;5911;51.036;6.972;2023-03-23T14:22:59;2.50;;;0.93;;
11709;SDS011;5911;51.036;6.972;2023-03-23T14:25:26;5.03;;;1.25;;
11709;SDS011;5911;51.036;6.972;2023-03-23T14:27:56;1.43;;;0.90;;
11709;SDS011;5911;51.036;6.972;2023-03-23T14:30:23;3.40;;;1.10;;
11709;SDS011;5911;51.036;6.972;2023-03-23T14:32:51;1.25;;;1.08;;
11709;SDS011;5911;51.036;6.972;2023-03-23T14:35:23;2.77;;;1.10;;
11709;SDS011;5911;51.036;6.972;2023-03-23T14:37:52;5.20;;;1.40;;
11709;SDS011;5911;51.036;6.972;2023-03-23T14:40:20;3.00;;;1.30;;
11709;SDS011;5911;51.036;6.972;2023-03-23T14:42:49;2.73;;;1.10;;
11709;SDS011;5911;51.036;6.972;2023-03-23T14:45:19;2.73;;;1.30;;
11709;SDS011;5911;51.036;6.972;2023-03-23T14:47:48;2.93;;;1.10;;
11709;SDS011;5911;51.036;6.972;2023-03-23T14:50:25;2.42;;;1.27;;
11709;SDS011;5911;51.036;6.972;2023-03-23T14:53:02;3.40;;;1.40;;
11709;SDS011;5911;51.036;6.972;2023-03-23T14:55:37;3.93;;;1.60;;
11709;SDS011;5911;51.036;6.972;2023-03-23T14:58:07;2.45;;;1.00;;
11709;SDS011;5911;51.036;6.972;2023-03-23T15:00:35;3.07;;;1.30;;
11709;SDS011;5911;51.036;6.972;2023-03-23T15:03:06;2.88;;;1.48;;
11709;SDS011;5911;51.036;6.972;2023-03-23T15:05:41;4.07;;;1.97;;
11709;SDS011;5911;51.036;6.972;2023-03-23T15:08:13;3.30;;;1.58;;
11709;SDS011;5911;51.036;6.972;2023-03-23T15:10:55;3.72;;;1.38;;
11709;SDS011;5911;51.036;6.972;2023-03-23T15:13:25;2.20;;;1.38;;
11709;SDS011;5911;51.036;6.972;2023-03-23T15:15:51;3.28;;;1.77;;
11709;SDS011;5911;51.036;6.972;2023-03-23T15:18:29;1.48;;;1.17;;
11709;SDS011;5911;51.036;6.972;2023-03-23T15:20:58;3.40;;;1.50;;
11709;SDS011;5911;51.036;6.972;2023-03-23T15:23:34;3.83;;;1.60;;
11709;SDS011;5911;51.036;6.972;2023-03-23T15:26:18;4.33;;;1.80;;
11709;SDS011;5911;51.036;6.972;2023-03-23T15:28:50;3.10;;;1.37;;
11709;SDS011;5911;51.036;6.972;2023-03-23T15:31:27;3.33;;;1.65;;
11709;SDS011;5911;51.036;6.972;2023-03-23T15:33:55;3.70;;;1.63;;
11709;SDS011;5911;51.036;6.972;2023-03-23T15:36:25;3.53;;;1.83;;
11709;SDS011;5911;51.036;6.972;2023-03-23T15:38:52;5.38;;;2.10;;
11709;SDS011;5911;51.036;6.972;2023-03-23T15:41:23;3.72;;;2.05;;
11709;SDS011;5911;51.036;6.972;2023-03-23T15:43:53;4.40;;;1.75;;
11709;SDS011;5911;51.036;6.972;2023-03-23T15:46:23;2.43;;;1.50;;